Time;durP1;ratioP1;P1;durP2;ratioP2;P2;SDS_P1;SDS_P2;PMS_P1;PMS_P2;Temp;Humidity;BMP_temperature;BMP_pressure;BME280_temperature;BME280_humidity;BME280_pressure;Samples;Min_cycle;Max_cycle;Signal;HPM_P1;HPM_P2
2022/06/17 00:00:26;;;;;;;3.30;1.80;;;;;;;16.36;48.98;101558.03;5069087;28;20434;-21
2022/06/17 00:02:52;;;;;;;1.50;1.40;;;;;;;16.37;49.08;101559.81;5050952;28;20452;-21
2022/06/17 00:05:18;;;;;;;5.18;1.70;;;;;;;16.27;49.07;101556.41;5067325;28;20036;-21
2022/06/17 00:07:43;;;;;;;2.83;1.95;;;;;;;16.24;49.14;101548.50;5052475;28;20406;-21
2022/06/17 00:10:22;;;;;;;1.58;1.48;;;;;;;16.23;49.18;101544.97;5055615;28;20476;-21
2022/06/17 00:12:48;;;;;;;2.30;1.70;;;;;;;16.18;49.42;101540.63;5049632;28;20048;-21
2022/06/17 00:15:13;;;;;;;2.00;1.80;;;;;;;16.15;49.57;101546.91;5064289;28;20238;-21
2022/06/17 00:17:46;;;;;;;2.13;1.83;;;;;;;16.10;49.51;101546.06;5068565;28;20503;-21
2022/06/17 00:20:14;;;;;;;1.85;1.75;;;;;;;16.08;49.50;101550.56;5068361;28;20399;-21
2022/06/17 00:22:41;;;;;;;1.73;1.48;;;;;;;16.02;49.57;101554.22;5066527;28;20456;-21
2022/06/17 00:25:24;;;;;;;1.98;1.60;;;;;;;16.00;49.47;101558.66;5051699;28;20036;-21
2022/06/17 00:27:50;;;;;;;3.28;2.05;;;;;;;15.97;49.48;101558.75;5066620;28;20284;-21
2022/06/17 00:30:18;;;;;;;2.60;2.00;;;;;;;15.88;49.61;101552.63;5065189;28;20434;-21
2022/06/17 00:32:43;;;;;;;2.67;2.00;;;;;;;15.85;49.59;101565.13;5052121;28;20020;-21
2022/06/17 00:35:10;;;;;;;2.35;1.98;;;;;;;15.78;49.61;101554.56;5052176;28;20384;-21
2022/06/17 00:37:35;;;;;;;4.93;1.73;;;;;;;15.71;49.75;101558.22;5067862;28;20024;-21
2022/06/17 00:40:01;;;;;;;3.33;2.08;;;;;;;15.67;49.91;101558.34;5070220;28;20032;-21
2022/06/17 00:42:27;;;;;;;2.65;2.00;;;;;;;15.61;49.80;101554.00;5067806;28;20032;-21
2022/06/17 00:45:02;;;;;;;2.22;1.70;;;;;;;15.58;49.81;101559.34;5063916;28;20037;-21
2022/06/17 00:47:37;;;;;;;1.80;1.70;;;;;;;15.51;49.95;101558.59;5031784;28;20162;-22
2022/06/17 00:50:15;;;;;;;2.25;1.60;;;;;;;15.42;50.13;101559.59;5067613;28;20115;-21
2022/06/17 00:52:48;;;;;;;2.60;1.63;;;;;;;15.41;50.37;101570.25;5067794;28;20024;-22
2022/06/17 00:55:21;;;;;;;1.92;1.77;;;;;;;15.34;50.41;101567.66;5048819;28;20028;-21
2022/06/17 00:57:46;;;;;;;2.97;1.67;;;;;;;15.31;50.44;101577.47;5053092;28;20032;-21
2022/06/17 01:00:16;;;;;;;2.58;2.30;;;;;;;15.25;50.57;101578.44;5071284;28;20033;-21
2022/06/17 01:02:53;;;;;;;2.33;1.77;;;;;;;15.21;50.54;101572.28;5071445;28;20032;-21
2022/06/17 01:05:41;;;;;;;1.65;1.55;;;;;;;15.15;50.39;101577.69;5063938;28;20226;-21
2022/06/17 01:09:57;;;;;;;2.92;1.85;;;;;;;15.14;50.74;101581.25;5072410;28;20502;-21
2022/06/17 01:11:07;;;;;;;2.35;2.03;;;;;;;15.16;50.34;101578.56;5070599;28;20048;-21
2022/06/17 01:13:33;;;;;;;2.75;2.17;;;;;;;15.11;50.49;101582.16;5070908;28;20030;-21
2022/06/17 01:15:59;;;;;;;3.95;1.80;;;;;;;15.10;50.85;101592.81;5060873;28;20270;-21
2022/06/17 01:18:25;;;;;;;2.67;2.15;;;;;;;15.00;50.67;101590.28;5056517;28;20039;-21
2022/06/17 01:20:54;;;;;;;1.75;1.65;;;;;;;14.97;50.84;101594.78;5031881;28;20112;-21
2022/06/17 01:23:20;;;;;;;2.47;1.73;;;;;;;14.94;50.68;101590.34;5038763;28;20059;-21
2022/06/17 01:25:47;;;;;;;2.25;2.05;;;;;;;14.90;50.85;101583.31;5064004;28;20017;-21
2022/06/17 01:28:16;;;;;;;2.17;2.08;;;;;;;14.88;50.91;101591.31;5070327;28;20166;-21
2022/06/17 01:30:58;;;;;;;2.28;2.08;;;;;;;14.86;50.69;101581.59;5069714;28;20078;-21
2022/06/17 01:33:28;;;;;;;2.10;2.00;;;;;;;14.85;50.78;101582.50;5043482;28;20031;-21
2022/06/17 01:36:00;;;;;;;1.88;1.33;;;;;;;14.76;51.36;101586.13;5067024;28;20078;-21
2022/06/17 01:38:28;;;;;;;2.22;1.77;;;;;;;14.75;51.26;101595.84;5060177;28;20028;-22
2022/06/17 01:40:54;;;;;;;2.33;2.00;;;;;;;14.70;51.33;101586.19;5064303;28;20318;-21
2022/06/17 01:43:21;;;;;;;2.03;1.90;;;;;;;14.65;51.45;101591.56;5061450;28;20036;-21
2022/06/17 01:45:54;;;;;;;2.30;2.10;;;;;;;14.58;51.60;101598.69;5057440;28;20040;-21
2022/06/17 01:48:23;;;;;;;3.72;1.90;;;;;;;14.56;51.46;101608.47;5059098;28;20040;-21
2022/06/17 01:50:50;;;;;;;1.88;1.77;;;;;;;14.58;51.33;101601.34;5056078;28;20042;-21
2022/06/17 01:53:20;;;;;;;2.67;2.40;;;;;;;14.56;51.55;101594.31;5072365;28;20047;-21
2022/06/17 01:55:49;;;;;;;4.68;2.53;;;;;;;14.52;51.69;101598.78;5068740;28;20063;-21
2022/06/17 01:58:20;;;;;;;2.05;1.92;;;;;;;14.49;51.87;101602.38;5057916;28;20029;-21
2022/06/17 02:00:46;;;;;;;2.70;2.22;;;;;;;14.46;51.91;101591.78;5056081;28;20027;-21
2022/06/17 02:03:15;;;;;;;2.20;1.98;;;;;;;14.42;52.03;101582.09;5042115;28;20028;-21
2022/06/17 02:05:44;;;;;;;2.30;2.10;;;;;;;14.40;52.12;101581.22;5059257;28;20032;-21
2022/06/17 02:08:10;;;;;;;2.08;1.98;;;;;;;14.36;52.16;101590.09;5069476;28;20029;-21
2022/06/17 02:10:38;;;;;;;2.88;2.10;;;;;;;14.33;52.35;101584.81;5069563;28;20036;-21
2022/06/17 02:13:04;;;;;;;2.35;2.00;;;;;;;14.32;52.43;101580.41;5070769;28;20043;-21
2022/06/17 02:15:30;;;;;;;2.75;1.90;;;;;;;14.28;52.19;101578.69;5069768;28;20599;-21
2022/06/17 02:17:55;;;;;;;2.13;1.85;;;;;;;14.25;52.05;101574.31;5071358;28;20123;-21
2022/06/17 02:20:23;;;;;;;2.20;2.00;;;;;;;14.20;52.16;101563.72;5067671;28;20154;-21
2022/06/17 02:22:48;;;;;;;2.30;1.63;;;;;;;14.16;52.33;101572.59;5070096;28;20031;-21
2022/06/17 02:25:23;;;;;;;2.25;1.77;;;;;;;14.08;52.63;101582.41;5055078;28;20025;-21
2022/06/17 02:27:51;;;;;;;3.65;2.10;;;;;;;14.10;52.43;101580.63;5053922;28;20438;-21
2022/06/17 02:30:17;;;;;;;1.85;1.75;;;;;;;14.05;52.35;101598.34;5039843;28;20020;-21
2022/06/17 02:32:43;;;;;;;2.45;2.25;;;;;;;14.02;52.78;101593.97;5067555;28;20028;-22
2022/06/17 02:35:24;;;;;;;4.28;1.98;;;;;;;14.04;52.60;101586.84;5054182;28;20024;-21
2022/06/17 02:37:52;;;;;;;2.38;1.90;;;;;;;13.95;52.33;101592.25;5032541;28;20075;-21
2022/06/17 02:40:28;;;;;;;2.15;2.03;;;;;;;13.91;52.85;101596.69;5065234;28;20024;-21
2022/06/17 02:42:53;;;;;;;2.15;1.90;;;;;;;13.92;52.74;101587.88;5050724;28;20484;-21
2022/06/17 02:45:22;;;;;;;2.25;2.15;;;;;;;13.85;52.76;101602.06;5066772;28;20110;-21
2022/06/17 02:47:48;;;;;;;2.67;2.00;;;;;;;13.88;52.94;101604.69;5067339;28;20178;-21
2022/06/17 02:50:16;;;;;;;1.98;1.88;;;;;;;13.84;52.77;101597.66;5067615;28;20550;-21
2022/06/17 02:52:42;;;;;;;2.60;2.40;;;;;;;13.84;52.84;101600.31;5070857;28;20035;-23
2022/06/17 02:55:32;;;;;;;2.15;2.05;;;;;;;13.77;52.88;101598.59;5066827;28;20143;-22
2022/06/17 02:58:22;;;;;;;2.15;2.05;;;;;;;13.73;52.49;101595.06;5071596;28;20047;-21
2022/06/17 03:00:49;;;;;;;2.17;1.98;;;;;;;13.68;52.46;101594.22;5027580;28;20082;-21
2022/06/17 03:03:15;;;;;;;2.00;1.90;;;;;;;13.59;52.69;101603.13;5046619;28;20447;-21
2022/06/17 03:05:43;;;;;;;2.25;2.05;;;;;;;13.56;52.58;101611.09;5069815;28;20060;-21
2022/06/17 03:08:23;;;;;;;2.50;2.20;;;;;;;13.54;52.91;101603.16;5069347;28;20455;-22
2022/06/17 03:10:51;;;;;;;2.53;2.33;;;;;;;13.52;52.75;101601.41;5068191;28;20094;-21
2022/06/17 03:13:21;;;;;;;2.30;2.08;;;;;;;13.45;52.59;101605.84;5049229;28;20119;-21
2022/06/17 03:15:48;;;;;;;2.47;2.28;;;;;;;13.45;52.86;101601.44;5047765;28;20071;-21
2022/06/17 03:18:13;;;;;;;2.05;1.92;;;;;;;13.39;53.05;101604.09;5053748;28;20498;-21
2022/06/17 03:20:40;;;;;;;2.38;2.17;;;;;;;13.36;52.97;101604.13;5052991;28;20028;-21
2022/06/17 03:23:12;;;;;;;2.83;2.63;;;;;;;13.29;53.02;101605.94;5064654;28;20573;-21
2022/06/17 03:25:58;;;;;;;2.30;2.20;;;;;;;13.30;53.65;101604.13;5068264;28;20028;-21
2022/06/17 03:28:30;;;;;;;2.20;2.10;;;;;;;13.27;53.55;101612.13;5053662;28;20033;-21
2022/06/17 03:31:02;;;;;;;2.58;2.20;;;;;;;13.26;53.39;101611.25;5069510;28;20013;-21
2022/06/17 03:33:39;;;;;;;2.47;2.15;;;;;;;13.26;53.48;101616.53;5052687;28;20070;-21
2022/06/17 03:36:12;;;;;;;2.35;2.15;;;;;;;13.24;53.35;101628.03;5049013;28;20380;-21
2022/06/17 03:38:50;;;;;;;3.25;2.55;;;;;;;13.23;53.54;101623.63;5070294;28;20043;-22
2022/06/17 03:41:30;;;;;;;2.75;2.20;;;;;;;13.18;53.65;101621.84;5054398;28;20393;-21
2022/06/17 03:44:00;;;;;;;2.53;2.33;;;;;;;13.15;53.46;101618.34;5065922;28;20515;-21
2022/06/17 03:46:26;;;;;;;5.22;2.72;;;;;;;13.19;53.90;101633.34;5068647;28;20039;-21
2022/06/17 03:48:52;;;;;;;3.22;2.50;;;;;;;13.18;53.62;101637.75;5050739;28;20025;-21
2022/06/17 03:51:21;;;;;;;2.20;2.10;;;;;;;13.16;54.06;101638.66;5055317;28;20163;-21
2022/06/17 03:53:47;;;;;;;4.43;2.22;;;;;;;13.14;54.59;101637.78;5065679;28;20107;-20
2022/06/17 03:56:27;;;;;;;5.82;2.50;;;;;;;13.10;54.21;101628.97;5067372;28;20167;-21
2022/06/17 03:58:56;;;;;;;2.92;2.72;;;;;;;13.08;53.84;101639.56;5066141;28;20043;-21
2022/06/17 04:01:43;;;;;;;3.03;2.83;;;;;;;13.08;54.57;101642.22;5049005;28;20423;-21
2022/06/17 04:04:21;;;;;;;5.40;3.10;;;;;;;13.06;54.53;101651.06;5066936;28;20029;-22
2022/06/17 04:06:51;;;;;;;2.75;2.55;;;;;;;13.02;54.04;101650.19;5054228;28;20024;-21
2022/06/17 04:09:24;;;;;;;2.67;2.47;;;;;;;12.96;54.09;101648.44;5064392;28;20108;-21
2022/06/17 04:11:51;;;;;;;2.70;2.40;;;;;;;12.99;54.87;101657.25;5033206;28;20111;-21
2022/06/17 04:14:28;;;;;;;2.90;2.65;;;;;;;13.08;54.55;101657.25;5066737;28;20043;-21
2022/06/17 04:17:12;;;;;;;3.13;2.83;;;;;;;13.15;54.64;101666.94;5049951;28;20036;-22
2022/06/17 04:19:38;;;;;;;3.20;2.90;;;;;;;13.21;54.38;101658.06;5054420;28;20082;-21
2022/06/17 04:22:16;;;;;;;3.35;2.38;;;;;;;13.25;54.28;101658.94;5054958;28;20071;-21
2022/06/17 04:24:45;;;;;;;2.53;2.42;;;;;;;13.27;54.64;101667.75;5063289;28;20024;-21
2022/06/17 04:27:12;;;;;;;3.92;2.83;;;;;;;13.30;54.47;101650.06;5043704;28;20036;-21
2022/06/17 04:29:42;;;;;;;2.80;2.60;;;;;;;13.36;54.91;101657.09;5066670;28;20033;-21
2022/06/17 04:32:16;;;;;;;5.07;2.58;;;;;;;13.39;54.50;101657.09;5045913;28;20024;-20
2022/06/17 04:34:42;;;;;;;3.53;2.60;;;;;;;13.43;54.68;101653.53;5065419;28;20056;-21
2022/06/17 04:37:17;;;;;;;2.88;2.67;;;;;;;13.45;54.45;101654.44;5067204;28;20082;-21
2022/06/17 04:39:58;;;;;;;3.78;2.67;;;;;;;13.51;54.51;101665.91;5059636;28;20110;-21
2022/06/17 04:42:31;;;;;;;3.90;2.80;;;;;;;13.56;54.34;101656.16;5065665;28;20037;-21
2022/06/17 04:44:57;;;;;;;3.33;2.78;;;;;;;13.62;54.37;101655.22;5048058;28;20032;-21
2022/06/17 04:47:23;;;;;;;2.95;2.67;;;;;;;13.63;54.38;101659.66;5067096;28;20025;-21
2022/06/17 04:50:11;;;;;;;3.75;2.92;;;;;;;13.65;55.05;101653.47;5034639;28;20374;-21
2022/06/17 04:52:42;;;;;;;5.22;2.50;;;;;;;13.70;54.75;101654.31;5065001;28;20031;-20
2022/06/17 04:55:38;;;;;;;3.15;2.95;;;;;;;13.78;54.53;101656.03;5056691;28;20316;-21
2022/06/17 04:58:03;;;;;;;2.53;2.33;;;;;;;13.84;54.16;101648.03;5054691;28;20036;-22
2022/06/17 05:00:31;;;;;;;2.90;2.58;;;;;;;13.84;54.09;101653.34;5062786;28;20036;-21
2022/06/17 05:02:57;;;;;;;3.22;2.88;;;;;;;13.82;54.69;101656.00;5057873;28;20025;-21
2022/06/17 05:05:35;;;;;;;2.83;2.58;;;;;;;13.88;54.85;101656.84;5067443;28;20017;-21
2022/06/17 05:08:04;;;;;;;3.60;2.88;;;;;;;13.93;54.32;101658.56;5057572;28;20024;-20
2022/06/17 05:10:32;;;;;;;3.13;2.92;;;;;;;14.02;54.47;101662.91;5075275;28;20380;-20
2022/06/17 05:13:02;;;;;;;3.00;2.50;;;;;;;14.11;54.26;101654.88;5068343;28;20025;-21
2022/06/17 05:15:29;;;;;;;2.72;2.22;;;;;;;14.19;54.48;101660.13;5030971;28;20028;-22
2022/06/17 05:17:56;;;;;;;2.75;2.55;;;;;;;14.26;54.93;101666.25;5064715;28;20476;-21
2022/06/17 05:20:23;;;;;;;2.78;2.40;;;;;;;14.33;55.83;101661.78;5056140;28;20024;-21
2022/06/17 05:23:09;;;;;;;3.42;2.97;;;;;;;14.42;55.16;101661.72;5057285;28;20029;-21
2022/06/17 05:25:37;;;;;;;2.72;2.53;;;;;;;14.50;54.85;101664.28;5055354;28;20041;-22
2022/06/17 05:28:04;;;;;;;5.05;2.42;;;;;;;14.57;55.22;101659.81;5065891;28;20016;-21
2022/06/17 05:30:36;;;;;;;2.60;2.40;;;;;;;14.65;55.54;101657.94;5065267;28;20027;-21
2022/06/17 05:33:01;;;;;;;3.45;3.00;;;;;;;14.71;55.66;101660.50;5060120;28;20020;-20
2022/06/17 05:35:26;;;;;;;5.20;2.97;;;;;;;14.81;55.21;101663.13;5068806;28;20520;-21
2022/06/17 05:37:52;;;;;;;3.72;2.85;;;;;;;14.88;55.45;101670.13;5065517;28;20498;-21
2022/06/17 05:40:18;;;;;;;3.63;2.75;;;;;;;14.96;54.83;101665.59;5067127;28;20036;-21
2022/06/17 05:42:45;;;;;;;2.72;2.53;;;;;;;15.03;55.25;101665.53;5056486;28;20115;-21
2022/06/17 05:45:16;;;;;;;4.07;2.90;;;;;;;15.11;54.71;101671.63;5067767;28;20055;-21
2022/06/17 05:47:42;;;;;;;3.22;2.92;;;;;;;15.21;54.36;101661.78;5069794;28;20078;-21
2022/06/17 05:50:13;;;;;;;3.15;2.80;;;;;;;15.29;54.02;101664.31;5067294;28;20024;-21
2022/06/17 05:52:52;;;;;;;;;;;;;;;15.39;53.51;101668.63;5070040;28;20039;-21
2022/06/17 05:55:18;;;;;;;3.58;2.63;;;;;;;15.49;54.46;101664.94;5070142;28;19920;-21
2022/06/17 05:57:43;;;;;;;3.45;2.58;;;;;;;15.60;54.22;101669.19;5069553;28;20452;-21
2022/06/17 06:00:09;;;;;;;3.00;2.70;;;;;;;15.70;54.11;101676.16;5069577;28;20460;-21
2022/06/17 06:02:35;;;;;;;3.35;2.90;;;;;;;15.84;53.39;101675.94;5068716;28;20032;-21
2022/06/17 06:05:00;;;;;;;2.70;2.50;;;;;;;15.93;53.56;101672.28;5068662;28;20035;-21
2022/06/17 06:07:26;;;;;;;2.58;2.38;;;;;;;16.02;53.90;101669.50;5067515;28;20020;-21
2022/06/17 06:09:51;;;;;;;3.47;2.67;;;;;;;16.15;53.81;101685.28;5057223;28;20510;-21
2022/06/17 06:12:18;;;;;;;2.53;2.33;;;;;;;16.23;53.71;101675.38;5056325;28;20032;-21
2022/06/17 06:14:43;;;;;;;3.42;2.47;;;;;;;16.34;53.86;101675.19;5054605;28;20499;-21
2022/06/17 06:17:10;;;;;;;2.63;2.42;;;;;;;16.47;53.09;101673.19;5069731;28;20033;-21
2022/06/17 06:19:36;;;;;;;2.45;2.25;;;;;;;16.61;53.27;101674.72;5048901;28;20037;-21
2022/06/17 06:22:01;;;;;;;3.05;2.85;;;;;;;16.72;53.64;101682.50;5069557;28;20028;-22
2022/06/17 06:24:26;;;;;;;3.88;2.50;;;;;;;16.85;53.00;101680.50;5068672;28;20479;-21
2022/06/17 06:26:52;;;;;;;2.80;2.53;;;;;;;16.93;52.81;101681.22;5069993;28;20111;-21
2022/06/17 06:29:17;;;;;;;3.00;2.80;;;;;;;17.05;53.15;101681.00;5072646;28;20031;-21
2022/06/17 06:31:44;;;;;;;4.47;3.20;;;;;;;17.16;52.67;101691.47;5063092;28;20622;-21
2022/06/17 06:34:10;;;;;;;3.65;2.95;;;;;;;17.24;53.04;101691.28;5066696;28;20031;-21
2022/06/17 06:36:36;;;;;;;3.55;2.83;;;;;;;17.35;52.76;101699.06;5067499;28;20028;-22
2022/06/17 06:39:01;;;;;;;3.00;2.70;;;;;;;17.48;52.71;101698.81;5067236;28;20025;-21
2022/06/17 06:41:26;;;;;;;2.60;2.40;;;;;;;17.59;52.98;101709.22;5066936;28;20037;-21
2022/06/17 06:43:52;;;;;;;3.05;2.78;;;;;;;17.70;52.17;101707.19;5054294;28;20532;-22
2022/06/17 06:46:19;;;;;;;3.30;2.78;;;;;;;17.85;52.33;101705.97;5062958;28;20038;-21
2022/06/17 06:48:45;;;;;;;3.30;3.00;;;;;;;17.95;52.54;101703.97;5063063;28;20025;-22
2022/06/17 06:51:10;;;;;;;2.90;2.70;;;;;;;18.11;52.53;101711.63;5067257;28;20078;-21
2022/06/17 06:53:36;;;;;;;3.97;3.10;;;;;;;18.21;51.90;101710.50;5049781;28;20024;-22
2022/06/17 06:56:03;;;;;;;3.65;2.75;;;;;;;18.32;52.18;101713.78;5066579;28;20142;-21
2022/06/17 06:58:28;;;;;;;2.88;2.67;;;;;;;18.40;51.69;101704.69;5067457;28;20123;-21
2022/06/17 07:00:56;;;;;;;2.70;2.50;;;;;;;18.55;52.13;101706.97;5042724;28;20028;-21
2022/06/17 07:03:22;;;;;;;3.78;2.88;;;;;;;18.69;51.47;101708.38;5070595;28;20023;-21
2022/06/17 07:05:53;;;;;;;3.42;2.65;;;;;;;18.80;51.44;101697.41;5066642;28;20116;-21
2022/06/17 07:08:21;;;;;;;3.65;2.55;;;;;;;18.92;51.00;101707.78;5050876;28;20073;-21
2022/06/17 07:10:48;;;;;;;3.15;2.85;;;;;;;19.03;50.81;101704.78;5067000;28;20024;-21
2022/06/17 07:13:14;;;;;;;3.65;3.00;;;;;;;19.17;50.98;101712.44;5066575;28;20042;-21
2022/06/17 07:15:41;;;;;;;3.35;2.45;;;;;;;19.30;50.93;101712.97;5046162;28;20040;-22
2022/06/17 07:18:07;;;;;;;3.33;2.72;;;;;;;19.41;50.94;101711.78;5046589;28;20761;-21
2022/06/17 07:20:42;;;;;;;2.85;2.20;;;;;;;19.55;50.39;101717.59;5066833;28;20484;-21
2022/06/17 07:23:09;;;;;;;2.70;2.08;;;;;;;19.65;50.10;101711.94;5060299;28;20078;-22
2022/06/17 07:25:35;;;;;;;3.58;2.78;;;;;;;19.81;50.04;101717.72;5056048;28;20031;-21
2022/06/17 07:28:01;;;;;;;3.70;2.58;;;;;;;19.94;50.21;101718.19;5065863;28;20021;-21
2022/06/17 07:30:27;;;;;;;2.92;2.53;;;;;;;20.03;50.07;101717.91;5067792;28;20043;-22
2022/06/17 07:32:53;;;;;;;3.05;2.70;;;;;;;20.15;49.79;101718.44;5059015;28;20506;-21
2022/06/17 07:35:20;;;;;;;2.60;2.40;;;;;;;20.26;50.11;101718.97;5058583;28;20028;-22
2022/06/17 07:40:31;;;;;;;3.35;2.85;;;;;;;20.61;49.95;101719.56;5067708;28;20177;-22
2022/06/17 07:42:56;;;;;;;3.20;2.40;;;;;;;20.69;49.57;101726.44;5067807;28;20543;-22
2022/06/17 07:45:24;;;;;;;3.63;2.85;;;;;;;20.83;49.22;101728.63;5069026;28;20119;-22
2022/06/17 07:47:50;;;;;;;3.85;2.65;;;;;;;20.93;49.10;101729.22;5054648;28;20025;-22
2022/06/17 07:50:27;;;;;;;2.42;2.30;;;;;;;21.09;49.00;101740.28;5069906;28;20508;-22
2022/06/17 07:52:53;;;;;;;2.85;2.55;;;;;;;21.24;48.46;101731.66;5067219;28;20103;-21
2022/06/17 07:55:18;;;;;;;2.50;2.10;;;;;;;21.37;48.83;101729.38;5067677;28;20586;-22
2022/06/17 07:57:45;;;;;;;5.05;2.40;;;;;;;21.48;47.92;101741.53;5056503;28;20615;-21
2022/06/17 08:00:20;;;;;;;2.78;2.45;;;;;;;21.56;48.03;101736.72;5037357;28;20028;-22
2022/06/17 08:02:45;;;;;;;5.22;2.40;;;;;;;21.64;47.78;101729.25;5052416;28;20078;-21
2022/06/17 08:05:11;;;;;;;2.72;2.53;;;;;;;21.74;47.39;101724.41;5067339;28;20111;-22
2022/06/17 08:07:36;;;;;;;2.47;2.28;;;;;;;21.85;47.60;101721.31;5046985;28;20504;-22
2022/06/17 08:10:02;;;;;;;3.33;2.40;;;;;;;21.97;47.42;101728.00;5067878;28;20025;-22
2022/06/17 08:12:27;;;;;;;2.95;2.75;;;;;;;22.07;47.38;101723.13;5050849;28;20066;-21
2022/06/17 08:14:54;;;;;;;3.08;2.78;;;;;;;22.22;46.82;101727.00;5066573;28;20024;-21
2022/06/17 08:17:20;;;;;;;3.33;2.45;;;;;;;22.38;46.99;101732.56;5066841;28;20085;-22
2022/06/17 08:19:46;;;;;;;2.85;2.42;;;;;;;22.51;47.24;101726.69;5066941;28;20036;-22
2022/06/17 08:22:11;;;;;;;3.88;2.30;;;;;;;22.62;47.38;101712.81;5050791;28;20499;-22
2022/06/17 08:24:37;;;;;;;3.15;1.85;;;;;;;22.73;47.31;101713.22;5064887;28;20033;-21
2022/06/17 08:27:03;;;;;;;2.70;2.50;;;;;;;22.83;46.92;101711.00;5068037;28;20032;-22
2022/06/17 08:29:29;;;;;;;5.30;2.58;;;;;;;22.98;47.17;101709.44;5067514;28;20031;-22
2022/06/17 08:31:55;;;;;;;2.88;2.20;;;;;;;23.06;47.21;101707.28;5066319;28;20036;-22
2022/06/17 08:34:20;;;;;;;2.80;2.60;;;;;;;23.19;46.16;101702.19;5066943;28;20028;-21
2022/06/17 08:36:46;;;;;;;2.38;2.17;;;;;;;23.33;46.52;101697.97;5065263;28;20610;-22
2022/06/17 08:39:13;;;;;;;2.08;1.88;;;;;;;23.48;47.15;101695.53;5065899;28;20388;-22
2022/06/17 08:42:12;;;;;;;2.53;2.20;;;;;;;23.64;46.63;101703.75;5062800;28;20162;-22
2022/06/17 08:44:52;;;;;;;2.40;2.20;;;;;;;23.88;45.52;101703.50;5019577;28;20036;-22
2022/06/17 08:47:33;;;;;;;2.10;1.77;;;;;;;24.11;44.78;101691.59;5078594;28;20460;-22
2022/06/17 08:50:27;;;;;;;2.45;2.25;;;;;;;24.26;44.11;101694.47;5066524;28;20028;-21
2022/06/17 08:53:02;;;;;;;2.28;1.80;;;;;;;24.35;44.09;101691.31;5053473;28;20036;-22
2022/06/17 08:55:47;;;;;;;2.22;1.80;;;;;;;24.40;44.25;101689.25;5064882;28;20020;-22
2022/06/17 08:58:18;;;;;;;2.22;2.03;;;;;;;24.54;43.75;101693.06;5067836;28;20245;-22
2022/06/17 09:01:04;;;;;;;2.42;2.03;;;;;;;24.62;43.99;101688.13;5066868;28;20076;-22
2022/06/17 09:03:46;;;;;;;3.20;2.40;;;;;;;24.73;43.82;101684.84;5066269;28;20044;-22
2022/06/17 09:06:19;;;;;;;3.17;2.30;;;;;;;24.79;44.28;101680.94;5053759;28;20119;-22
2022/06/17 09:09:19;;;;;;;3.28;1.77;;;;;;;24.88;44.08;101672.41;5059906;28;20032;-21
2022/06/17 09:11:55;;;;;;;1.70;1.60;;;;;;;24.99;44.56;101669.13;5066161;28;20052;-22
2022/06/17 09:14:35;;;;;;;1.85;1.75;;;;;;;25.06;43.86;101669.63;5060787;28;20020;-21
2022/06/17 09:17:22;;;;;;;2.00;1.90;;;;;;;25.27;43.58;101666.72;5045617;28;20032;-21
2022/06/17 09:19:51;;;;;;;2.33;1.85;;;;;;;25.37;43.90;101671.50;5069076;28;20025;-22
2022/06/17 09:22:22;;;;;;;1.98;1.80;;;;;;;25.48;43.34;101670.88;5058412;28;20035;-22
2022/06/17 09:24:47;;;;;;;2.90;1.85;;;;;;;25.52;43.75;101670.72;5069798;28;20031;-21
2022/06/17 09:27:36;;;;;;;2.10;1.70;;;;;;;25.57;44.58;101664.09;5069788;28;20399;-22
2022/06/17 09:30:20;;;;;;;2.20;1.63;;;;;;;25.70;43.99;101669.69;5068118;28;20027;-22
2022/06/17 09:33:08;;;;;;;1.83;1.73;;;;;;;25.79;44.59;101676.41;5038719;28;20032;-22
2022/06/17 09:35:35;;;;;;;1.58;1.48;;;;;;;25.84;43.31;101670.75;5067763;28;20028;-22
2022/06/17 09:38:10;;;;;;;1.98;1.77;;;;;;;25.93;42.70;101664.78;5058053;28;20082;-21
2022/06/17 09:40:40;;;;;;;1.83;1.60;;;;;;;26.06;43.89;101672.16;5069121;28;20020;-22
2022/06/17 09:43:05;;;;;;;2.47;1.77;;;;;;;26.14;44.06;101659.94;5056359;28;20479;-22
2022/06/17 09:45:37;;;;;;;1.95;1.77;;;;;;;26.30;42.73;101660.88;5064612;28;20784;-22
2022/06/17 09:48:15;;;;;;;1.65;1.52;;;;;;;26.52;42.84;101665.84;5067185;28;20024;-22
2022/06/17 09:50:49;;;;;;;1.67;1.58;;;;;;;26.80;39.33;101664.13;5069478;28;20028;-22
2022/06/17 09:53:21;;;;;;;1.80;1.50;;;;;;;26.78;40.27;101660.66;5070019;28;20056;-22
2022/06/17 09:55:50;;;;;;;1.73;1.63;;;;;;;26.76;40.11;101652.63;5058960;28;20031;-22
2022/06/17 09:58:24;;;;;;;1.88;1.70;;;;;;;26.88;40.15;101655.53;5071056;28;20032;-21
2022/06/17 10:00:52;;;;;;;3.28;1.40;;;;;;;26.89;40.74;101646.44;5070095;28;20021;-22
2022/06/17 10:03:24;;;;;;;1.98;1.83;;;;;;;26.87;41.10;101653.78;5064249;28;20021;-22
2022/06/17 10:06:01;;;;;;;4.03;1.65;;;;;;;26.97;40.31;101651.41;5064257;28;20078;-22
2022/06/17 10:08:27;;;;;;;2.55;1.80;;;;;;;27.03;40.50;101648.28;5069567;28;20579;-22
2022/06/17 10:10:58;;;;;;;1.65;1.55;;;;;;;27.07;40.82;101649.00;5066149;28;20082;-21
2022/06/17 10:13:38;;;;;;;3.30;1.60;;;;;;;27.14;40.94;101647.63;5066271;28;20032;-22
2022/06/17 10:19:28;;;;;;;2.05;1.77;;;;;;;27.40;39.84;101655.88;5058534;28;20035;-22
2022/06/17 10:22:15;;;;;;;1.73;1.63;;;;;;;27.40;40.20;101645.91;5066501;28;20024;-22
2022/06/17 10:24:43;;;;;;;2.47;1.75;;;;;;;27.48;40.58;101655.38;5066515;28;20511;-22
2022/06/17 10:27:27;;;;;;;1.77;1.50;;;;;;;27.57;41.27;101648.50;5068993;28;20043;-22
2022/06/17 10:30:11;;;;;;;2.13;1.77;;;;;;;27.63;39.79;101645.38;5066213;28;20048;-23
2022/06/17 10:32:40;;;;;;;2.08;1.92;;;;;;;27.75;40.00;101639.16;5053329;28;20086;-21
2022/06/17 10:35:13;;;;;;;2.22;1.60;;;;;;;27.86;40.33;101641.13;5063646;28;20107;-22
2022/06/17 10:37:39;;;;;;;1.95;1.40;;;;;;;27.98;39.13;101638.56;5069293;28;20455;-21
2022/06/17 10:40:07;;;;;;;2.22;1.95;;;;;;;28.10;39.81;101631.44;5063069;28;20064;-22
2022/06/17 10:42:33;;;;;;;1.60;1.50;;;;;;;28.15;39.45;101632.88;5067432;28;20112;-22
2022/06/17 10:45:01;;;;;;;1.50;1.40;;;;;;;28.24;38.95;101622.34;5067529;28;20459;-23
2022/06/17 10:47:40;;;;;;;2.10;1.50;;;;;;;28.28;38.93;101629.31;5071223;28;20032;-22
2022/06/17 10:50:19;;;;;;;1.98;1.75;;;;;;;28.39;38.47;101625.84;5066632;28;20020;-22
2022/06/17 10:53:12;;;;;;;2.22;1.60;;;;;;;28.47;37.82;101618.03;5067431;28;20052;-21
2022/06/17 10:55:45;;;;;;;2.80;1.30;;;;;;;28.51;37.52;101611.41;5061051;28;20025;-21
2022/06/17 10:58:13;;;;;;;2.13;1.75;;;;;;;28.59;37.58;101605.44;5052033;28;20031;-22
2022/06/17 11:00:54;;;;;;;1.48;1.27;;;;;;;28.60;36.36;101612.59;5067826;28;20358;-23
2022/06/17 11:03:30;;;;;;;;;;;;;;;28.62;35.93;101615.22;5065682;28;20409;-22
2022/06/17 11:06:05;;;;;;;4.80;1.60;;;;;;;28.61;35.88;101591.78;5065631;28;20058;-21
2022/06/17 11:08:36;;;;;;;4.97;1.77;;;;;;;28.67;36.10;101591.31;5065184;28;20124;-22
2022/06/17 11:13:49;;;;;;;1.77;1.67;;;;;;;28.58;37.74;101594.69;5069961;28;20027;-22
2022/06/17 11:16:20;;;;;;;2.92;1.40;;;;;;;28.66;36.60;101595.00;5068520;28;20028;-22
2022/06/17 11:18:58;;;;;;;3.25;1.40;;;;;;;28.73;36.42;101590.88;5064651;28;20037;-22
2022/06/17 11:21:31;;;;;;;2.83;1.48;;;;;;;28.79;36.26;101590.44;5062592;28;20107;-22
2022/06/17 11:23:58;;;;;;;2.30;1.58;;;;;;;28.89;37.05;101585.22;5059184;28;20442;-23
2022/06/17 11:26:30;;;;;;;1.77;1.63;;;;;;;28.94;35.97;101587.59;5067080;28;20487;-23
2022/06/17 11:29:00;;;;;;;2.50;1.40;;;;;;;28.95;37.96;101583.94;5041641;28;20733;-22
2022/06/17 11:31:25;;;;;;;3.35;1.40;;;;;;;28.97;38.69;101592.81;5058639;28;20506;-22
2022/06/17 11:33:53;;;;;;;1.60;1.50;;;;;;;28.96;36.71;101582.94;5067823;28;20041;-23
2022/06/17 11:36:23;;;;;;;1.40;1.30;;;;;;;29.05;36.22;101584.13;5068386;28;20037;-22
2022/06/17 11:38:49;;;;;;;1.40;1.23;;;;;;;29.14;35.37;101582.56;5068408;28;20115;-22
2022/06/17 11:41:21;;;;;;;1.80;1.70;;;;;;;29.16;35.80;101583.31;5066991;28;20488;-22
2022/06/17 11:43:47;;;;;;;1.65;1.55;;;;;;;29.19;36.29;101588.50;5066893;28;20032;-23
2022/06/17 11:46:22;;;;;;;2.67;1.30;;;;;;;29.25;35.55;101582.63;5058986;28;20085;-22
2022/06/17 11:48:50;;;;;;;2.25;1.60;;;;;;;29.35;35.55;101587.34;5062313;28;20053;-22
2022/06/17 11:51:23;;;;;;;1.38;1.15;;;;;;;29.39;35.37;101572.56;5066748;28;20423;-22